Time;durP1;ratioP1;P1;durP2;ratioP2;P2;SDS_P1;SDS_P2;PMS_P1;PMS_P2;Temp;Humidity;BMP_temperature;BMP_pressure;BME280_temperature;BME280_humidity;BME280_pressure;Samples;Min_cycle;Max_cycle;Signal;HPM_P1;HPM_P2
2024/01/23 00:01:11;;;;;;;10.10;1.20;;;10.40;99.90;;;;;;5001362;28;20093;-19
2024/01/23 00:03:37;;;;;;;8.20;1.30;;;10.40;99.90;;;;;;5013680;28;20090;-19
2024/01/23 00:06:03;;;;;;;9.57;1.27;;;10.40;99.90;;;;;;5003597;28;20048;-18
2024/01/23 00:08:29;;;;;;;7.00;1.25;;;10.40;99.90;;;;;;5014601;28;20452;-20
2024/01/23 00:10:56;;;;;;;7.97;1.40;;;10.30;99.90;;;;;;4995179;28;20499;-19
2024/01/23 00:13:22;;;;;;;7.03;1.27;;;10.40;99.90;;;;;;5002104;28;20045;-20
2024/01/23 00:15:48;;;;;;;11.55;1.50;;;10.30;99.90;;;;;;5012327;28;20037;-21
2024/01/23 00:18:14;;;;;;;9.27;1.40;;;10.30;99.90;;;;;;4999748;28;20034;-19
2024/01/23 00:20:40;;;;;;;5.20;1.47;;;10.30;99.90;;;;;;5010273;28;20553;-19
2024/01/23 00:23:06;;;;;;;4.50;0.90;;;10.30;99.90;;;;;;5001325;28;20022;-19
2024/01/23 00:25:32;;;;;;;10.55;1.60;;;10.30;99.90;;;;;;5011498;28;20043;-19
2024/01/23 00:27:57;;;;;;;6.80;1.40;;;10.20;99.90;;;;;;5010320;28;20049;-22
2024/01/23 00:30:23;;;;;;;7.38;1.65;;;10.20;99.90;;;;;;5012418;28;20637;-24
2024/01/23 00:32:49;;;;;;;7.43;1.37;;;10.20;99.90;;;;;;5000624;28;20536;-24
2024/01/23 00:35:15;;;;;;;7.97;1.35;;;10.20;99.90;;;;;;5011893;28;20042;-21
2024/01/23 00:37:41;;;;;;;4.97;1.00;;;10.20;99.90;;;;;;5016659;28;20033;-22
2024/01/23 00:40:09;;;;;;;6.07;0.82;;;10.20;99.90;;;;;;5014408;28;20093;-20
2024/01/23 00:42:35;;;;;;;4.03;0.90;;;10.10;99.90;;;;;;5012895;28;20029;-18
2024/01/23 00:45:01;;;;;;;4.93;1.03;;;10.10;99.90;;;;;;5012401;28;20409;-19
2024/01/23 00:47:27;;;;;;;7.28;1.05;;;10.10;99.90;;;;;;5000724;28;20049;-18
2024/01/23 00:49:53;;;;;;;5.30;0.90;;;10.10;99.90;;;;;;5016048;28;20033;-19
2024/01/23 00:52:18;;;;;;;9.85;1.58;;;10.10;99.90;;;;;;5000722;28;20079;-19
2024/01/23 00:54:44;;;;;;;9.87;1.57;;;10.10;99.90;;;;;;5014781;28;20085;-18
2024/01/23 00:57:10;;;;;;;13.50;2.25;;;10.10;99.90;;;;;;5012475;28;20059;-19
2024/01/23 00:59:35;;;;;;;8.07;1.43;;;10.00;99.90;;;;;;5002080;28;20120;-20
2024/01/23 01:02:02;;;;;;;4.85;1.52;;;10.00;99.90;;;;;;5013510;28;20034;-19
2024/01/23 01:04:27;;;;;;;8.43;1.30;;;10.10;99.90;;;;;;5010454;28;20055;-18
2024/01/23 01:06:53;;;;;;;4.87;1.00;;;10.10;99.90;;;;;;5011818;28;20080;-20
2024/01/23 01:09:19;;;;;;;5.25;1.17;;;10.10;99.90;;;;;;5011214;28;20088;-19
2024/01/23 01:11:45;;;;;;;7.37;1.10;;;10.00;99.90;;;;;;4989529;28;20081;-19
2024/01/23 01:14:10;;;;;;;9.98;1.60;;;10.00;99.90;;;;;;5012013;28;20448;-19
2024/01/23 01:16:36;;;;;;;4.47;1.00;;;10.00;99.90;;;;;;5017141;28;20132;-18
2024/01/23 01:19:03;;;;;;;7.05;1.10;;;10.00;99.90;;;;;;5014431;28;20346;-19
2024/01/23 01:41:40;;;;;;;8.63;1.40;;;9.80;99.90;;;;;;5016227;28;20605;-19
2024/01/23 01:44:07;;;;;;;6.40;1.30;;;9.70;99.90;;;;;;5014355;28;20373;-19
2024/01/23 01:46:33;;;;;;;7.13;1.38;;;9.70;99.90;;;;;;5018841;28;20436;-18
2024/01/23 01:48:59;;;;;;;5.87;1.07;;;9.70;99.90;;;;;;5019543;28;20113;-20
2024/01/23 01:51:28;;;;;;;3.22;1.13;;;9.70;99.90;;;;;;5020504;28;20038;-22
2024/01/23 01:53:53;;;;;;;6.85;1.13;;;9.60;99.90;;;;;;4999845;28;20054;-21
2024/01/23 01:56:22;;;;;;;5.97;1.07;;;9.60;99.90;;;;;;5018521;28;21126;-20
2024/01/23 01:58:48;;;;;;;6.28;1.00;;;9.60;99.90;;;;;;5015784;28;20444;-24
2024/01/23 02:01:14;;;;;;;7.75;1.10;;;9.60;99.90;;;;;;5019482;28;20083;-23
2024/01/23 02:03:40;;;;;;;6.13;1.37;;;9.60;99.90;;;;;;5017999;28;20515;-22
2024/01/23 02:06:07;;;;;;;7.78;1.73;;;9.60;99.90;;;;;;4998133;28;20041;-23
2024/01/23 02:08:36;;;;;;;6.88;1.35;;;9.50;99.90;;;;;;5017989;28;20433;-22
2024/01/23 02:11:03;;;;;;;5.97;1.77;;;9.50;99.90;;;;;;5015027;28;20080;-21
2024/01/23 02:13:28;;;;;;;8.52;1.40;;;9.50;99.90;;;;;;5000906;28;20144;-21
2024/01/23 02:15:55;;;;;;;6.03;1.00;;;9.50;99.90;;;;;;5017508;28;20104;-22
2024/01/23 02:18:21;;;;;;;6.35;1.52;;;9.50;99.90;;;;;;5001753;28;20449;-21
2024/01/23 02:20:47;;;;;;;6.07;1.27;;;9.50;99.90;;;;;;5000214;28;20413;-20
2024/01/23 02:23:13;;;;;;;5.63;1.40;;;9.50;99.90;;;;;;5015638;28;20038;-22
2024/01/23 02:25:40;;;;;;;6.15;1.10;;;9.50;99.90;;;;;;5004016;28;20454;-20
2024/01/23 02:28:07;;;;;;;7.45;1.33;;;9.50;99.90;;;;;;5012089;28;20488;-21
2024/01/23 02:30:34;;;;;;;5.40;1.23;;;9.40;99.90;;;;;;5016164;28;20281;-23
2024/01/23 02:33:03;;;;;;;5.40;1.70;;;9.50;99.90;;;;;;5018250;28;20637;-21
2024/01/23 02:35:30;;;;;;;5.47;1.20;;;9.40;99.90;;;;;;4997689;28;20158;-21
2024/01/23 02:37:55;;;;;;;8.70;1.38;;;9.40;99.90;;;;;;5000969;28;20120;-21
2024/01/23 02:40:21;;;;;;;5.75;1.50;;;9.40;99.90;;;;;;5013822;28;20126;-22
2024/01/23 02:42:47;;;;;;;4.97;1.00;;;9.40;99.90;;;;;;5016840;28;20038;-22
2024/01/23 02:45:13;;;;;;;4.32;0.90;;;9.40;99.90;;;;;;5017776;28;20100;-22
2024/01/23 02:47:38;;;;;;;2.10;0.70;;;9.40;99.90;;;;;;4983373;28;20413;-22
2024/01/23 02:50:08;;;;;;;8.73;1.20;;;11.70;99.90;;;;;;5016777;28;20034;-21
2024/01/23 02:52:34;;;;;;;7.05;1.27;;;9.30;99.90;;;;;;5013621;28;20104;-22
2024/01/23 02:55:00;;;;;;;8.55;1.30;;;9.30;99.90;;;;;;5011898;28;20042;-22
2024/01/23 02:57:27;;;;;;;6.70;1.10;;;9.30;99.90;;;;;;5013588;28;20042;-22
2024/01/23 02:59:53;;;;;;;3.85;1.08;;;9.30;99.90;;;;;;5013118;28;20414;-20
2024/01/23 03:02:20;;;;;;;4.57;0.90;;;9.30;99.90;;;;;;5014069;28;20276;-19
2024/01/23 03:04:46;;;;;;;3.42;1.10;;;9.20;99.90;;;;;;5012411;28;20577;-19
2024/01/23 03:07:12;;;;;;;4.70;1.00;;;9.30;99.90;;;;;;4997848;28;20124;-19
2024/01/23 03:09:37;;;;;;;2.03;0.70;;;9.30;99.90;;;;;;4998587;28;20048;-19
2024/01/23 03:12:17;;;;;;;2.60;1.00;;;9.20;99.90;;;;;;5015428;28;20046;-19
2024/01/23 03:14:47;;;;;;;4.80;0.90;;;9.20;99.90;;;;;;5013691;28;20371;-19
2024/01/23 03:17:13;;;;;;;7.00;1.03;;;9.20;99.90;;;;;;5016077;28;20652;-20
2024/01/23 03:19:41;;;;;;;6.43;1.15;;;9.20;99.90;;;;;;5014786;28;20147;-21
2024/01/23 03:22:07;;;;;;;6.05;1.42;;;9.20;99.90;;;;;;4996356;28;20071;-20
2024/01/23 03:24:33;;;;;;;6.43;1.05;;;9.10;99.90;;;;;;5015344;28;20711;-18
2024/01/23 03:26:59;;;;;;;2.55;0.77;;;9.10;99.90;;;;;;5000544;28;20739;-23
2024/01/23 03:29:27;;;;;;;6.80;1.10;;;9.10;99.90;;;;;;5016558;28;20041;-18
2024/01/23 03:31:52;;;;;;;4.55;0.80;;;9.10;99.90;;;;;;5012379;28;20041;-20
2024/01/23 03:34:19;;;;;;;6.57;0.95;;;9.00;99.90;;;;;;4998217;28;20511;-20
2024/01/23 03:36:45;;;;;;;3.40;0.80;;;9.00;99.90;;;;;;5013868;28;20053;-20
2024/01/23 03:39:12;;;;;;;4.95;0.90;;;9.00;99.90;;;;;;4993615;28;20283;-21
2024/01/23 03:41:38;;;;;;;4.47;1.00;;;8.90;99.90;;;;;;4997887;28;20088;-20
2024/01/23 03:44:07;;;;;;;5.43;0.88;;;9.00;99.90;;;;;;4996187;28;20049;-19
2024/01/23 03:46:33;;;;;;;7.78;1.55;;;8.90;99.90;;;;;;5013844;28;20034;-20
2024/01/23 03:48:59;;;;;;;5.63;1.00;;;8.90;99.90;;;;;;4982395;28;20502;-19
2024/01/23 03:51:25;;;;;;;5.22;0.98;;;8.90;99.90;;;;;;4995428;28;20176;-19
2024/01/23 03:53:51;;;;;;;3.92;0.98;;;8.90;99.90;;;;;;5012149;28;20044;-21
2024/01/23 03:56:17;;;;;;;6.73;1.00;;;8.90;99.90;;;;;;4995966;28;20029;-20
2024/01/23 03:58:43;;;;;;;3.92;0.82;;;8.90;99.90;;;;;;5015542;28;20635;-20
2024/01/23 04:01:09;;;;;;;7.77;1.07;;;8.90;99.90;;;;;;5015052;28;20116;-18
2024/01/23 04:03:37;;;;;;;6.15;1.00;;;8.80;99.90;;;;;;4997341;28;20061;-20
2024/01/23 04:06:03;;;;;;;6.30;1.30;;;8.80;99.90;;;;;;5012711;28;20457;-19
2024/01/23 04:08:29;;;;;;;5.05;0.80;;;8.80;99.90;;;;;;4994066;28;20347;-20
2024/01/23 04:10:57;;;;;;;4.57;1.10;;;8.80;99.90;;;;;;5014443;28;20111;-24
2024/01/23 04:13:23;;;;;;;5.72;1.00;;;8.80;99.90;;;;;;5009385;28;20441;-21
2024/01/23 04:15:49;;;;;;;3.55;0.95;;;8.70;99.90;;;;;;5012906;28;20033;-22
2024/01/23 04:18:14;;;;;;;4.97;0.93;;;8.70;99.90;;;;;;5013737;28;20041;-22
2024/01/23 04:20:40;;;;;;;4.50;0.95;;;8.70;99.90;;;;;;4999337;28;20084;-21
2024/01/23 04:23:06;;;;;;;3.30;0.80;;;8.80;99.90;;;;;;5013373;28;20069;-21
2024/01/23 04:25:31;;;;;;;5.78;1.40;;;8.70;99.90;;;;;;4999457;28;20033;-24
2024/01/23 04:27:57;;;;;;;4.07;0.90;;;8.60;99.90;;;;;;5013421;28;20509;-28
2024/01/23 04:30:25;;;;;;;7.97;1.10;;;8.60;99.90;;;;;;4996485;28;20773;-23
2024/01/23 04:32:50;;;;;;;2.60;0.90;;;8.60;99.90;;;;;;5015521;28;20030;-20
2024/01/23 04:35:16;;;;;;;6.17;0.90;;;8.60;99.90;;;;;;5014965;28;20655;-23
2024/01/23 04:37:42;;;;;;;3.65;1.00;;;8.60;99.90;;;;;;5012768;28;20389;-23
2024/01/23 04:40:09;;;;;;;6.43;0.80;;;8.50;99.90;;;;;;5013057;28;20121;-21
2024/01/23 04:42:35;;;;;;;3.07;0.80;;;8.40;99.90;;;;;;5015233;28;20052;-21
2024/01/23 04:45:01;;;;;;;6.13;1.52;;;8.50;99.90;;;;;;5011229;28;20409;-25
2024/01/23 04:47:27;;;;;;;3.03;1.00;;;8.50;99.90;;;;;;4999914;28;20049;-20
2024/01/23 04:49:53;;;;;;;2.40;0.80;;;8.40;99.90;;;;;;5014179;28;20029;-21
2024/01/23 04:52:19;;;;;;;4.22;0.88;;;8.40;99.90;;;;;;5013376;28;20079;-22
2024/01/23 04:54:44;;;;;;;4.13;0.80;;;8.40;99.90;;;;;;4996376;28;20038;-21
2024/01/23 04:57:11;;;;;;;5.37;1.00;;;8.40;99.90;;;;;;5012601;28;20038;-21
2024/01/23 04:59:37;;;;;;;4.45;1.23;;;8.40;99.90;;;;;;5014471;28;20068;-21
2024/01/23 05:02:04;;;;;;;5.32;1.45;;;8.30;99.90;;;;;;4996704;28;20065;-25
2024/01/23 05:04:30;;;;;;;6.40;1.00;;;8.30;99.90;;;;;;5013819;28;20056;-21
2024/01/23 05:06:55;;;;;;;2.03;0.65;;;8.30;99.90;;;;;;5011122;28;20445;-20
2024/01/23 05:09:21;;;;;;;4.30;0.77;;;8.30;99.90;;;;;;5013098;28;20534;-20
2024/01/23 05:11:47;;;;;;;2.80;0.60;;;8.30;99.90;;;;;;4995444;28;20111;-21
2024/01/23 05:14:17;;;;;;;4.45;0.70;;;8.30;99.90;;;;;;5014476;28;20124;-20
2024/01/23 05:16:43;;;;;;;4.93;1.00;;;8.20;99.90;;;;;;4996301;28;20165;-20
2024/01/23 05:19:09;;;;;;;4.40;0.88;;;8.20;99.90;;;;;;5009051;28;20034;-21
2024/01/23 05:21:35;;;;;;;2.90;0.77;;;8.20;99.90;;;;;;4979218;28;20276;-18
2024/01/23 05:24:02;;;;;;;5.97;1.20;;;8.20;99.90;;;;;;4994464;28;20175;-19
2024/01/23 05:26:28;;;;;;;3.78;0.90;;;8.20;99.90;;;;;;5012834;28;20052;-20
2024/01/23 05:28:54;;;;;;;6.70;1.92;;;8.20;99.90;;;;;;5011686;28;20410;-19
2024/01/23 05:31:20;;;;;;;3.90;0.90;;;7.50;99.90;;;;;;4994758;28;20041;-19
2024/01/23 05:33:46;;;;;;;5.00;0.97;;;8.10;99.90;;;;;;5001770;28;20033;-19
2024/01/23 05:36:12;;;;;;;5.73;0.90;;;8.10;99.90;;;;;;5011657;28;20276;-19
2024/01/23 05:38:37;;;;;;;3.97;1.05;;;6.80;99.90;;;;;;4997057;28;20453;-20
2024/01/23 05:41:03;;;;;;;5.17;0.80;;;8.10;99.90;;;;;;5012698;28;20513;-19
2024/01/23 05:43:29;;;;;;;4.70;1.00;;;8.10;99.90;;;;;;5014018;28;20694;-21
2024/01/23 05:45:55;;;;;;;3.70;0.90;;;8.10;99.90;;;;;;5014296;28;20048;-19
2024/01/23 05:48:21;;;;;;;5.93;0.80;;;8.10;99.90;;;;;;5011083;28;20488;-19
2024/01/23 05:50:47;;;;;;;3.78;0.70;;;8.10;99.90;;;;;;5013172;28;20726;-20
2024/01/23 05:53:13;;;;;;;3.90;1.10;;;8.10;99.90;;;;;;5013288;28;20045;-21
2024/01/23 05:55:39;;;;;;;4.00;0.82;;;8.10;99.90;;;;;;5012552;28;20774;-19
2024/01/23 05:58:05;;;;;;;4.37;1.00;;;8.00;99.90;;;;;;4999526;28;20540;-19
2024/01/23 06:00:31;;;;;;;4.45;1.27;;;8.00;99.90;;;;;;4997629;28;20095;-19
2024/01/23 06:02:57;;;;;;;4.00;1.15;;;8.10;99.90;;;;;;5014523;28;20033;-18
2024/01/23 06:05:23;;;;;;;4.80;0.80;;;8.00;99.90;;;;;;5016551;28;20474;-18
2024/01/23 06:07:49;;;;;;;5.80;0.75;;;8.00;99.90;;;;;;5004127;28;20413;-19
2024/01/23 06:10:16;;;;;;;6.00;1.13;;;8.00;99.90;;;;;;5003999;28;20071;-19
2024/01/23 06:12:42;;;;;;;3.13;1.10;;;8.00;99.90;;;;;;5015057;28;20124;-18
2024/01/23 06:15:08;;;;;;;5.47;0.90;;;8.00;99.90;;;;;;4997736;28;20091;-20
2024/01/23 06:17:34;;;;;;;5.35;0.80;;;8.00;99.90;;;;;;5017719;28;20037;-19
2024/01/23 06:20:04;;;;;;;5.63;1.10;;;8.00;99.90;;;;;;4999818;28;20037;-18
2024/01/23 06:22:30;;;;;;;4.00;1.10;;;8.00;99.90;;;;;;5000949;28;20168;-19
2024/01/23 06:25:06;;;;;;;4.70;0.82;;;7.90;99.90;;;;;;5017279;28;20113;-19
2024/01/23 06:27:33;;;;;;;4.07;0.90;;;7.90;99.90;;;;;;4999380;28;20037;-21
2024/01/23 06:29:59;;;;;;;2.33;0.70;;;7.90;99.90;;;;;;5013980;28;20038;-19
2024/01/23 06:32:25;;;;;;;3.97;1.20;;;7.90;99.90;;;;;;5017471;28;20056;-18
2024/01/23 06:34:54;;;;;;;5.63;1.13;;;7.90;99.90;;;;;;5014165;28;20037;-19
2024/01/23 06:37:20;;;;;;;3.80;0.93;;;7.90;99.90;;;;;;5017458;28;20041;-19
2024/01/23 06:39:47;;;;;;;4.80;1.00;;;7.90;99.90;;;;;;5011248;28;20061;-19
2024/01/23 06:42:12;;;;;;;6.47;1.65;;;7.90;99.90;;;;;;4982881;28;20034;-21
2024/01/23 06:44:39;;;;;;;4.68;0.90;;;7.90;99.90;;;;;;4998858;28;20048;-21
2024/01/23 06:47:05;;;;;;;3.30;0.70;;;8.00;99.90;;;;;;4995325;28;20070;-21
2024/01/23 06:49:31;;;;;;;3.57;0.90;;;8.90;99.90;;;;;;4996888;28;20034;-22
2024/01/23 06:51:56;;;;;;;5.15;1.25;;;7.90;99.90;;;;;;4984505;28;20104;-19
2024/01/23 06:54:22;;;;;;;4.63;1.00;;;7.90;99.90;;;;;;4965380;28;20053;-19
2024/01/23 06:56:48;;;;;;;4.57;1.00;;;7.90;99.90;;;;;;4981358;28;20108;-19
2024/01/23 06:59:15;;;;;;;3.78;1.20;;;7.90;99.90;;;;;;4994512;28;20064;-19
2024/01/23 07:01:41;;;;;;;6.88;1.15;;;7.90;99.90;;;;;;4983323;28;20033;-19
2024/01/23 07:04:07;;;;;;;6.47;1.30;;;7.90;99.90;;;;;;4966713;28;20479;-19
2024/01/23 07:06:33;;;;;;;4.90;0.82;;;7.80;99.90;;;;;;4995453;28;20034;-19
2024/01/23 07:08:59;;;;;;;5.63;1.35;;;7.80;99.90;;;;;;4977306;28;20093;-19
2024/01/23 07:11:25;;;;;;;5.13;0.95;;;7.80;99.90;;;;;;4994663;28;20041;-20
2024/01/23 07:13:51;;;;;;;4.03;0.90;;;7.80;99.90;;;;;;4999001;28;20038;-18
2024/01/23 07:16:17;;;;;;;5.55;0.90;;;7.70;99.90;;;;;;4983675;28;20045;-19
2024/01/23 07:18:43;;;;;;;8.25;1.13;;;7.80;99.90;;;;;;4982502;28;20409;-19
2024/01/23 07:21:09;;;;;;;4.90;1.03;;;7.80;99.90;;;;;;4992927;28;20049;-18
2024/01/23 07:23:36;;;;;;;3.30;0.90;;;7.70;99.90;;;;;;4994491;28;20030;-21
2024/01/23 07:26:02;;;;;;;5.45;0.95;;;7.70;99.90;;;;;;4973734;28;20030;-22
2024/01/23 07:28:28;;;;;;;5.82;0.85;;;7.70;99.90;;;;;;4976392;28;20050;-18
2024/01/23 07:30:55;;;;;;;4.97;0.80;;;7.70;99.90;;;;;;4976004;28;20051;-18
2024/01/23 07:33:20;;;;;;;6.63;1.13;;;7.70;99.90;;;;;;4994075;28;20045;-19
2024/01/23 07:35:46;;;;;;;9.10;1.20;;;6.90;99.90;;;;;;4978972;28;20033;-19
2024/01/23 07:38:12;;;;;;;6.00;1.03;;;7.70;99.90;;;;;;4996160;28;20281;-21
2024/01/23 07:40:38;;;;;;;6.87;1.10;;;6.80;99.90;;;;;;5005278;28;20045;-20
2024/01/23 07:43:04;;;;;;;3.85;0.80;;;7.70;99.90;;;;;;5013199;28;20052;-19
2024/01/23 07:45:30;;;;;;;4.13;0.93;;;7.70;99.90;;;;;;5012942;28;20042;-20
2024/01/23 07:47:56;;;;;;;5.00;1.10;;;7.70;99.90;;;;;;4995817;28;20048;-20
2024/01/23 07:50:22;;;;;;;5.63;1.23;;;7.70;99.90;;;;;;5012844;28;20120;-20
2024/01/23 07:52:48;;;;;;;4.25;0.98;;;7.70;99.90;;;;;;5009606;28;20041;-20
2024/01/23 07:55:13;;;;;;;7.55;1.20;;;7.70;99.90;;;;;;4976584;28;20034;-20
2024/01/23 07:57:39;;;;;;;7.23;1.30;;;7.70;99.90;;;;;;5006207;28;21309;-21
2024/01/23 08:00:07;;;;;;;7.85;1.40;;;7.70;99.90;;;;;;4989308;28;20529;-20
2024/01/23 08:02:32;;;;;;;7.00;1.20;;;7.80;99.90;;;;;;5008529;28;20018;-20
2024/01/23 08:04:59;;;;;;;6.28;1.85;;;7.80;99.90;;;;;;5010667;28;20210;-21
2024/01/23 08:07:25;;;;;;;5.40;1.50;;;7.80;99.90;;;;;;5014257;28;20518;-20
2024/01/23 08:09:51;;;;;;;6.73;1.50;;;7.80;99.90;;;;;;5011641;28;20264;-19
2024/01/23 08:12:16;;;;;;;9.13;1.40;;;7.90;99.90;;;;;;4996155;28;20473;-20
2024/01/23 08:14:42;;;;;;;6.85;1.23;;;7.90;99.90;;;;;;5013352;28;20502;-20
2024/01/23 08:17:10;;;;;;;7.60;1.60;;;8.00;99.90;;;;;;4978297;28;20121;-21
2024/01/23 08:19:37;;;;;;;5.70;1.30;;;8.10;99.90;;;;;;5001056;28;20107;-20
2024/01/23 08:22:04;;;;;;;6.07;1.30;;;8.10;99.90;;;;;;5011036;28;20022;-21
2024/01/23 08:24:29;;;;;;;5.53;1.30;;;8.20;99.90;;;;;;5010848;28;20120;-20
2024/01/23 08:26:56;;;;;;;3.87;1.20;;;8.30;99.90;;;;;;5008203;28;20111;-20
2024/01/23 08:29:22;;;;;;;5.25;1.27;;;8.40;99.90;;;;;;4999463;28;20018;-21
2024/01/23 08:31:47;;;;;;;5.67;1.20;;;8.50;99.90;;;;;;4994856;28;20037;-20
2024/01/23 08:34:13;;;;;;;5.67;1.00;;;8.60;99.90;;;;;;4992945;28;20517;-23
2024/01/23 08:36:39;;;;;;;5.18;1.30;;;8.60;99.90;;;;;;5009030;28;20055;-21
2024/01/23 08:39:05;;;;;;;5.63;0.97;;;8.60;99.90;;;;;;4983760;28;20072;-20
2024/01/23 08:41:31;;;;;;;6.63;1.40;;;8.70;99.90;;;;;;5011907;28;20519;-21
2024/01/23 08:43:56;;;;;;;4.50;1.10;;;8.80;99.90;;;;;;5010047;28;20041;-20
2024/01/23 08:46:22;;;;;;;7.97;1.90;;;8.80;99.90;;;;;;5010078;28;20683;-20
2024/01/23 08:48:49;;;;;;;7.90;1.50;;;8.90;99.90;;;;;;4995185;28;20552;-20
2024/01/23 08:51:15;;;;;;;5.83;1.00;;;8.90;99.90;;;;;;5011735;28;21013;-22
2024/01/23 08:53:41;;;;;;;8.57;1.17;;;8.90;99.90;;;;;;4996321;28;20053;-24
2024/01/23 08:56:06;;;;;;;7.00;1.50;;;8.90;99.90;;;;;;4998420;28;20560;-21
2024/01/23 08:58:32;;;;;;;8.77;1.83;;;9.00;99.90;;;;;;4998829;28;20037;-23
2024/01/23 09:00:58;;;;;;;8.13;1.40;;;9.00;99.90;;;;;;5011985;28;20135;-21
2024/01/23 09:03:24;;;;;;;4.38;1.20;;;9.20;99.90;;;;;;5011183;28;20038;-22
2024/01/23 09:05:50;;;;;;;4.80;1.07;;;9.20;99.90;;;;;;5010016;28;20033;-26
2024/01/23 09:08:16;;;;;;;7.05;1.08;;;9.30;99.90;;;;;;5008435;28;20040;-24
2024/01/23 09:10:42;;;;;;;7.75;1.42;;;9.40;99.90;;;;;;5009686;28;20445;-23
2024/01/23 09:13:08;;;;;;;7.87;1.63;;;9.50;99.90;;;;;;5011903;28;20326;-20
2024/01/23 09:15:34;;;;;;;6.28;1.23;;;9.60;99.90;;;;;;4997559;28;20125;-20
2024/01/23 09:18:01;;;;;;;5.20;1.15;;;9.70;99.90;;;;;;4974949;28;20195;-20
2024/01/23 09:20:26;;;;;;;4.57;1.10;;;9.80;99.90;;;;;;4994505;28;20128;-21
2024/01/23 09:22:52;;;;;;;7.18;1.30;;;9.80;99.90;;;;;;5012030;28;20088;-22
2024/01/23 09:25:18;;;;;;;9.90;1.30;;;9.90;99.90;;;;;;4991432;28;20320;-21
2024/01/23 09:27:44;;;;;;;7.70;1.30;;;10.00;99.90;;;;;;5011809;28;20449;-22
2024/01/23 09:30:11;;;;;;;5.75;1.10;;;10.10;99.90;;;;;;5013531;28;20402;-21
2024/01/23 09:32:36;;;;;;;7.30;1.50;;;10.20;99.90;;;;;;4995517;28;20177;-20
2024/01/23 09:35:02;;;;;;;8.23;1.30;;;10.30;99.90;;;;;;5012108;28;20717;-19
2024/01/23 09:37:28;;;;;;;7.22;1.65;;;10.50;99.90;;;;;;5017441;28;20271;-20
2024/01/23 09:39:54;;;;;;;7.37;1.00;;;10.60;99.90;;;;;;4996998;28;20111;-19
2024/01/23 09:42:23;;;;;;;7.53;2.25;;;10.70;99.90;;;;;;4996810;28;20073;-20
2024/01/23 09:44:53;;;;;;;7.85;1.30;;;10.90;99.90;;;;;;5014542;28;20029;-19
2024/01/23 09:47:20;;;;;;;7.25;1.15;;;11.20;99.90;;;;;;5011309;28;20112;-21
2024/01/23 09:49:47;;;;;;;8.07;1.65;;;11.40;99.90;;;;;;5002499;28;20042;-19
2024/01/23 09:52:15;;;;;;;4.57;1.20;;;11.70;99.90;;;;;;5017887;28;20061;-19
2024/01/23 09:54:41;;;;;;;6.28;1.30;;;12.00;99.90;;;;;;5015206;28;20583;-21
2024/01/23 09:57:07;;;;;;;9.25;1.65;;;12.30;99.90;;;;;;5016215;28;20125;-20
2024/01/23 09:59:33;;;;;;;8.68;1.40;;;12.50;99.90;;;;;;5014567;28;20319;-19
2024/01/23 10:01:59;;;;;;;8.10;1.60;;;12.80;99.90;;;;;;5015658;28;20120;-20
2024/01/23 10:04:28;;;;;;;11.77;1.50;;;13.00;99.90;;;;;;5013037;28;20345;-19
2024/01/23 10:06:54;;;;;;;9.50;1.70;;;13.20;99.90;;;;;;5003877;28;20049;-19
2024/01/23 10:09:20;;;;;;;8.60;1.80;;;13.40;99.90;;;;;;5014672;28;20046;-20
2024/01/23 10:11:45;;;;;;;9.73;1.60;;;13.50;99.90;;;;;;4995490;28;20033;-19
2024/01/23 10:14:17;;;;;;;6.97;1.50;;;13.60;99.90;;;;;;5015228;28;20030;-20
2024/01/23 10:16:46;;;;;;;6.63;2.08;;;13.50;99.90;;;;;;5012182;28;20092;-21
2024/01/23 10:19:12;;;;;;;11.95;1.70;;;13.50;99.90;;;;;;5013954;28;20278;-19
2024/01/23 10:21:39;;;;;;;8.03;1.77;;;13.40;99.90;;;;;;5014514;28;20049;-22
2024/01/23 10:24:07;;;;;;;4.93;2.08;;;13.30;99.90;;;;;;5014780;28;20695;-23
2024/01/23 10:26:33;;;;;;;10.60;2.13;;;13.10;99.90;;;;;;5012567;28;20108;-22
2024/01/23 10:29:02;;;;;;;10.10;1.90;;;13.00;99.90;;;;;;4995481;28;20117;-23
2024/01/23 10:31:28;;;;;;;9.50;1.67;;;12.90;99.90;;;;;;4995043;28;20069;-28
2024/01/23 10:33:53;;;;;;;10.07;1.77;;;12.70;99.90;;;;;;5013209;28;20416;-23
2024/01/23 10:36:20;;;;;;;9.73;2.05;;;12.60;99.90;;;;;;5014826;28;20437;-24
2024/01/23 10:38:50;;;;;;;7.55;1.70;;;12.50;99.90;;;;;;5014004;28;20026;-22
2024/01/23 10:41:17;;;;;;;9.70;2.65;;;12.50;99.90;;;;;;4997736;28;20422;-21
2024/01/23 10:43:46;;;;;;;7.27;2.20;;;12.40;99.90;;;;;;5012252;28;20674;-23
2024/01/23 10:46:12;;;;;;;10.70;2.65;;;12.40;99.90;;;;;;4997374;28;20117;-22
2024/01/23 10:48:38;;;;;;;8.05;2.00;;;12.30;99.90;;;;;;5013384;28;20042;-21
2024/01/23 10:51:20;;;;;;;8.98;1.70;;;12.30;99.90;;;;;;5013691;28;20041;-20
2024/01/23 10:54:06;;;;;;;11.93;2.08;;;12.20;99.90;;;;;;4986100;28;20522;-22
2024/01/23 10:56:44;;;;;;;6.63;1.60;;;12.10;99.90;;;;;;4979835;28;20034;-23
2024/01/23 10:59:19;;;;;;;9.77;1.80;;;12.10;99.90;;;;;;5011527;28;20132;-22
2024/01/23 11:01:45;;;;;;;12.60;2.33;;;12.00;99.90;;;;;;4999864;28;20041;-22
2024/01/23 11:04:15;;;;;;;16.35;2.33;;;12.00;99.90;;;;;;5013340;28;20091;-22
2024/01/23 11:06:58;;;;;;;8.23;1.70;;;12.00;99.90;;;;;;4997551;28;20096;-22
2024/01/23 11:09:32;;;;;;;7.93;1.50;;;11.90;99.90;;;;;;5014655;28;20120;-21
2024/01/23 11:12:14;;;;;;;6.97;1.75;;;12.00;99.90;;;;;;4999387;28;20057;-22
2024/01/23 11:14:48;;;;;;;8.90;1.52;;;12.00;99.90;;;;;;4995523;28;20226;-22
2024/01/23 11:17:14;;;;;;;8.75;1.50;;;12.10;99.90;;;;;;5011806;28;20522;-21
2024/01/23 11:19:45;;;;;;;9.70;1.60;;;12.20;99.90;;;;;;5012938;28;20080;-22
2024/01/23 11:22:11;;;;;;;8.15;1.88;;;12.30;99.90;;;;;;5012392;28;20084;-21
2024/01/23 11:24:56;;;;;;;11.00;1.90;;;12.50;99.90;;;;;;5010845;28;20622;-22
2024/01/23 11:27:23;;;;;;;12.73;2.42;;;12.60;99.90;;;;;;4993299;28;20041;-22
2024/01/23 11:29:50;;;;;;;9.23;1.60;;;12.80;99.90;;;;;;4999128;28;20494;-22
2024/01/23 11:32:19;;;;;;;9.03;1.67;;;12.90;99.90;;;;;;5008829;28;20068;-23
2024/01/23 11:34:46;;;;;;;8.82;2.10;;;13.00;99.90;;;;;;4996177;28;20038;-23
2024/01/23 11:37:42;;;;;;;8.52;1.55;;;13.10;99.90;;;;;;5013438;28;20041;-22
2024/01/23 11:40:37;;;;;;;8.57;1.50;;;13.20;99.90;;;;;;5011862;28;20256;-23
2024/01/23 11:43:06;;;;;;;9.10;1.80;;;13.10;99.90;;;;;;5013689;28;20172;-22
2024/01/23 11:45:37;;;;;;;6.00;1.27;;;13.20;99.90;;;;;;5001744;28;20385;-23
2024/01/23 11:48:04;;;;;;;10.00;1.92;;;13.20;99.90;;;;;;4997610;28;20367;-25
2024/01/23 11:50:35;;;;;;;14.50;2.33;;;13.20;99.90;;;;;;5014074;28;20933;-21
2024/01/23 11:53:02;;;;;;;10.73;1.85;;;13.20;99.90;;;;;;5011100;28;20041;-25
2024/01/23 11:55:28;;;;;;;8.45;1.98;;;13.30;99.90;;;;;;5012195;28;20045;-23
2024/01/23 11:57:55;;;;;;;8.17;1.97;;;13.20;99.90;;;;;;5012569;28;20441;-21
2024/01/23 12:00:22;;;;;;;6.20;1.40;;;13.20;99.90;;;;;;4994830;28;20030;-22
2024/01/23 12:02:49;;;;;;;10.73;2.40;;;13.20;99.90;;;;;;4996724;28;20037;-23
2024/01/23 12:05:17;;;;;;;5.05;1.48;;;13.10;99.90;;;;;;5010325;28;20033;-21
2024/01/23 12:07:43;;;;;;;15.00;2.70;;;13.10;99.90;;;;;;5002851;28;20413;-23
2024/01/23 12:10:11;;;;;;;13.32;2.20;;;13.10;99.90;;;;;;4997851;28;20124;-22
2024/01/23 12:12:37;;;;;;;9.90;1.98;;;13.10;99.90;;;;;;5013591;28;20375;-21
2024/01/23 12:15:04;;;;;;;11.82;2.95;;;13.20;99.90;;;;;;5009973;28;20223;-22
2024/01/23 12:17:34;;;;;;;5.75;1.50;;;13.20;99.90;;;;;;5008965;28;20282;-25
2024/01/23 12:20:05;;;;;;;9.10;2.10;;;13.20;99.90;;;;;;5010055;28;20030;-23
2024/01/23 12:22:31;;;;;;;9.73;2.78;;;13.30;99.90;;;;;;5010107;28;20025;-21
2024/01/23 12:24:57;;;;;;;10.05;2.72;;;13.30;99.90;;;;;;5014384;28;20034;-25
2024/01/23 12:27:25;;;;;;;10.93;2.38;;;13.30;99.90;;;;;;4996433;28;20410;-20
2024/01/23 12:29:51;;;;;;;11.95;2.00;;;13.20;99.90;;;;;;4997965;28;20406;-21
2024/01/23 12:32:17;;;;;;;7.37;1.80;;;13.30;99.90;;;;;;4997331;28;20120;-22
2024/01/23 12:34:45;;;;;;;8.80;2.20;;;13.30;99.90;;;;;;5014165;28;20038;-21
2024/01/23 12:37:11;;;;;;;12.18;2.30;;;13.30;99.90;;;;;;4997692;28;20045;-21
2024/01/23 12:39:37;;;;;;;11.17;2.20;;;13.20;99.90;;;;;;5010586;28;20036;-22
2024/01/23 12:42:02;;;;;;;12.73;2.60;;;13.20;99.90;;;;;;4990791;28;20276;-22
2024/01/23 12:44:29;;;;;;;8.70;2.20;;;13.10;99.90;;;;;;5009938;28;20141;-20
2024/01/23 12:46:56;;;;;;;11.77;2.45;;;13.10;99.90;;;;;;5009292;28;20046;-20
2024/01/23 12:49:22;;;;;;;7.80;1.93;;;14.30;99.90;;;;;;5009117;28;20120;-20
2024/01/23 12:51:51;;;;;;;7.70;1.85;;;12.90;99.90;;;;;;5011365;28;20050;-22
2024/01/23 12:54:17;;;;;;;9.55;1.80;;;12.90;99.90;;;;;;5013581;28;21144;-20
2024/01/23 12:56:43;;;;;;;7.03;1.77;;;12.90;99.90;;;;;;5008384;28;20034;-20
2024/01/23 12:59:09;;;;;;;9.40;2.07;;;12.80;99.90;;;;;;4994639;28;20644;-20
2024/01/23 13:01:35;;;;;;;9.75;2.15;;;12.80;99.90;;;;;;4998129;28;20111;-21
2024/01/23 13:04:00;;;;;;;6.17;1.70;;;12.80;99.90;;;;;;5011536;28;20533;-20
2024/01/23 13:06:27;;;;;;;13.65;2.20;;;12.80;99.90;;;;;;4992138;28;20306;-20
2024/01/23 13:08:53;;;;;;;10.63;2.30;;;12.70;99.90;;;;;;5009567;28;20041;-20
2024/01/23 13:11:19;;;;;;;11.07;2.93;;;12.70;99.90;;;;;;5014885;28;20030;-19